5.200 kWh

EHAM AMSTERDAM/SCHIPHOL NLD -3 m.
METAR EHAM 241455Z 07010KT 020V110 9999 FEW025 19/14 Q1022 NOSIG

EHAM AMSTERDAM/SCHIPHOL NLD -3 m.
TAF EHAM 241035Z 2412/2518 09006KT 9999 FEW025
BECMG 2420/2422 4000 MIFG BR NSC
PROB40 TEMPO 2422/2502 0600 BCFG
BECMG 2501/2503 0600 FG
PROB30 2503/2507 0300 OVC001
BECMG 2507/2509 7000 NSW NSC
BECMG 2509/2511 9999 SCT025